Sabael, NY

6:09 AM EDT on March 30, 2015 (GMT -0400)
Indian Lake | | Change Station
CLOSE
Current Station
Personal Weather Station
Location: Indian Lake, NY
Elevation: 1660 ft
Nearby Weather Stations

Elev 1660 ft 43.75 °N, 74.28 °W | Updated 12 seconds ago

Overcast
Overcast
26.4 °F
Feels Like 18 °F
N
7.8
Wind Variable Wind from SSE
Gusts 7.8 mph

Today
High -- | Low -- °F
--% Chance of Precip.
Yesterday
High -- | Low -- °F
Precip. -- in
6:42 AM 7:21 PM
Waxing Gibbous, 78% visible
Pressure 29.86 in
Visibility 10.0 miles
Clouds Mostly Cloudy 6000 ft
Windchill 18 °F
Dew Point 6 °F
Humidity 41%
Rainfall 0.00 in
Snow Depth Not available.
UV 0 out of 12
Pollen 2.20 out of 12
Air Quality Not available.
Flu Activity Not available.
METAR KGFL 300853Z AUTO 21010KT 10SM BKN060 01/M11 A2984 RMK AO2 SLP112 T00111106 56030

More Conditions Fewer Conditions

Pressure 29.86 in
Visibility 10.0 miles
Clouds Mostly Cloudy 6000 ft
Windchill 18 °F
Dew Point 6 °F
Humidity 41%
Rainfall 0.00 in
Snow Depth Not available.
UV 0 out of 12
Pollen 2.20 out of 12
Air Quality Not available.
Flu Activity Not available.
METAR KGFL 300853Z AUTO 21010KT 10SM BKN060 01/M11 A2984 RMK AO2 SLP112 T00111106 56030

More Conditions Fewer Conditions

10-Day Weather Forecast

Almanac

Astronomy

Mar. 30, 2015 Rise Set
Actual Time
Civil Twilight
Nautical Twilight
Astronomical Twilight
Moon
Length of Visible Light
Length of Day
Tomorrow will be .
, % of the Moon is Illuminated

Today's Extremes

State Highs State Lows

Community

WunderPhotos

Upload Photos

1,809,453 photos uploaded!

WunderBlogs® & News

Nearby

Air Quality

  Air Quality AQ Index Pollutant
Not available.

Snow Depth

Station Depth Elevation

Earthquake Activity

City Distance Mag. Time & Date
Minimum magnitude displayed is 2.5.

Coastal Water Temperatures

Place Temperature

Stations

Nearby Weather Stations

Station Location Temp. Windchill Dew Point Humidity Wind Precip. Elev Updated Type